createdAt,value
2019-04-29T00:00:45.065Z,30.17
2019-04-29T00:03:12.557Z,27.32
2019-04-29T00:05:39.699Z,29.00
2019-04-29T00:08:06.930Z,30.08
2019-04-29T00:10:34.130Z,29.40
2019-04-29T00:13:01.295Z,27.77
2019-04-29T00:15:46.716Z,27.45
2019-04-29T00:18:22.481Z,28.07
2019-04-29T00:20:50.308Z,31.73
2019-04-29T00:23:17.475Z,26.95
2019-04-29T00:25:44.604Z,25.52
2019-04-29T00:28:12.155Z,28.55
2019-04-29T00:30:39.325Z,27.80
2019-04-29T00:33:06.433Z,28.70
2019-04-29T00:35:33.633Z,29.27
2019-04-29T00:38:19.109Z,26.65
2019-04-29T00:41:04.785Z,26.15
2019-04-29T00:43:45.547Z,26.30
2019-04-29T00:46:12.639Z,28.38
2019-04-29T00:48:39.774Z,27.42
2019-04-29T00:51:06.908Z,29.63
2019-04-29T00:53:34.130Z,28.50
2019-04-29T00:56:01.978Z,29.00
2019-04-29T00:58:29.185Z,27.35
2019-04-29T01:00:56.409Z,28.20
2019-04-29T01:03:23.466Z,29.75
2019-04-29T01:05:50.589Z,28.23
2019-04-29T01:08:17.807Z,32.73
2019-04-29T01:10:44.892Z,26.93
2019-04-29T01:13:12.025Z,24.02
2019-04-29T01:15:39.069Z,24.90
2019-04-29T01:18:06.134Z,21.82
2019-04-29T01:20:33.257Z,24.07
2019-04-29T01:23:00.362Z,23.83
2019-04-29T01:25:27.435Z,26.55
2019-04-29T01:28:10.974Z,27.75
2019-04-29T01:30:56.194Z,25.05
2019-04-29T01:33:23.468Z,27.87
2019-04-29T01:35:54.277Z,26.27
2019-04-29T01:38:21.333Z,26.40
2019-04-29T01:40:58.984Z,26.95
2019-04-29T01:43:45.647Z,25.17
2019-04-29T01:46:12.800Z,26.95
2019-04-29T01:48:39.795Z,25.20
2019-04-29T01:51:06.803Z,27.62
2019-04-29T01:53:33.923Z,24.47
2019-04-29T01:56:00.949Z,24.57
2019-04-29T01:58:28.008Z,26.52
2019-04-29T02:00:55.075Z,25.72
2019-04-29T02:03:22.149Z,26.50
2019-04-29T02:05:49.258Z,28.17
2019-04-29T02:08:16.553Z,26.15
2019-04-29T02:10:43.665Z,27.07
2019-04-29T02:13:10.778Z,28.40
2019-04-29T02:15:37.857Z,24.85
2019-04-29T02:18:04.911Z,27.13
2019-04-29T02:20:31.928Z,26.30
2019-04-29T02:23:18.534Z,30.15
2019-04-29T02:25:46.049Z,27.50
2019-04-29T02:28:13.102Z,27.58
2019-04-29T02:30:45.457Z,29.50
2019-04-29T02:33:12.535Z,28.02
2019-04-29T02:35:39.883Z,27.73
2019-04-29T02:38:09.414Z,25.43
2019-04-29T02:40:44.017Z,27.62
2019-04-29T02:43:16.426Z,29.95
2019-04-29T02:45:43.425Z,27.60
2019-04-29T02:48:10.479Z,29.65
2019-04-29T02:50:37.512Z,30.23
2019-04-29T02:53:04.533Z,30.27
2019-04-29T02:55:38.541Z,32.83
2019-04-29T02:58:12.668Z,30.68
2019-04-29T03:00:59.378Z,28.15
2019-04-29T03:03:38.056Z,30.88
2019-04-29T03:06:05.311Z,29.25
2019-04-29T03:09:30.333Z,29.37
2019-04-29T03:12:31.085Z,29.00
2019-04-29T03:18:53.825Z,32.08
2019-04-29T03:21:28.301Z,28.12
2019-04-29T03:23:55.369Z,31.48
2019-04-29T03:26:22.405Z,34.67
2019-04-29T03:28:49.488Z,30.92
2019-04-29T03:31:16.471Z,31.85
2019-04-29T03:33:43.533Z,35.55
2019-04-29T03:36:10.523Z,33.48
2019-04-29T03:38:37.541Z,32.23
2019-04-29T03:41:04.550Z,30.00
2019-04-29T03:43:31.588Z,36.13
2019-04-29T03:45:58.605Z,32.88
2019-04-29T03:48:25.645Z,33.50
2019-04-29T03:50:52.674Z,33.00
2019-04-29T03:53:19.683Z,33.08
2019-04-29T03:55:46.716Z,36.08
2019-04-29T03:58:13.720Z,38.75
2019-04-29T04:00:44.296Z,38.48
2019-04-29T04:03:26.845Z,37.58
2019-04-29T04:06:08.448Z,27.98
2019-04-29T04:08:38.104Z,37.48
2019-04-29T04:11:05.161Z,37.95
2019-04-29T04:13:32.154Z,36.88
2019-04-29T04:15:59.410Z,34.80
2019-04-29T04:18:33.253Z,33.53
2019-04-29T04:21:00.301Z,33.92
2019-04-29T04:23:27.295Z,35.80
2019-04-29T04:25:54.343Z,36.85
2019-04-29T04:28:21.357Z,36.98
2019-04-29T04:30:48.423Z,43.38
2019-04-29T04:33:15.434Z,39.23
2019-04-29T04:35:42.474Z,37.08
2019-04-29T04:38:09.506Z,36.33
2019-04-29T04:40:41.361Z,38.45
2019-04-29T04:43:08.379Z,51.20
2019-04-29T04:45:35.399Z,44.83
2019-04-29T04:48:02.559Z,41.75
2019-04-29T04:50:29.693Z,43.00
2019-04-29T04:52:56.755Z,40.35
2019-04-29T04:55:26.967Z,42.10
2019-04-29T04:57:53.991Z,40.28
2019-04-29T05:00:22.580Z,41.50
2019-04-29T05:02:49.657Z,45.15
2019-04-29T05:05:16.782Z,41.18
2019-04-29T05:07:43.910Z,50.65
2019-04-29T05:10:11.615Z,45.85
2019-04-29T05:12:38.631Z,48.68
2019-04-29T05:15:05.724Z,44.83
2019-04-29T05:17:32.855Z,45.10
2019-04-29T05:19:59.911Z,43.35
2019-04-29T05:22:26.940Z,43.20
2019-04-29T05:24:53.977Z,44.83
2019-04-29T05:27:21.015Z,46.85
2019-04-29T05:29:48.057Z,41.53
2019-04-29T05:32:15.155Z,44.73
2019-04-29T05:34:46.522Z,36.35
2019-04-29T05:37:19.886Z,40.50
2019-04-29T05:39:47.004Z,32.30
2019-04-29T05:42:17.043Z,33.50
2019-04-29T05:45:02.574Z,31.07
2019-04-29T05:47:35.753Z,34.20
2019-04-29T05:50:37.805Z,32.67
2019-04-29T05:53:27.220Z,29.55
2019-04-29T05:55:54.327Z,31.15
2019-04-29T05:58:21.388Z,36.60
2019-04-29T06:01:01.331Z,28.75
2019-04-29T06:03:28.509Z,27.25
2019-04-29T06:05:55.555Z,28.98
2019-04-29T06:08:22.718Z,28.05
2019-04-29T06:10:49.787Z,26.55
2019-04-29T06:13:16.799Z,29.25
2019-04-29T06:15:43.818Z,28.75
2019-04-29T06:18:10.923Z,35.08
2019-04-29T06:20:37.961Z,33.30
2019-04-29T06:23:04.997Z,31.52
2019-04-29T06:25:32.058Z,30.43
2019-04-29T06:27:59.132Z,33.40
2019-04-29T06:30:26.146Z,29.40
2019-04-29T06:32:53.218Z,30.65
2019-04-29T06:35:20.256Z,34.03
2019-04-29T06:37:47.282Z,39.58
2019-04-29T06:40:14.550Z,36.23
2019-04-29T06:42:41.586Z,34.13
2019-04-29T06:45:08.664Z,32.40
2019-04-29T06:47:35.680Z,32.95
2019-04-29T06:50:03.696Z,35.35
2019-04-29T08:02:32.798Z,34.73
2019-04-29T08:04:59.839Z,36.05
2019-04-29T08:07:27.370Z,33.35
2019-04-29T08:09:54.783Z,30.43
2019-04-29T08:12:23.275Z,34.75
2019-04-29T08:14:53.406Z,32.83
2019-04-29T08:17:20.845Z,30.30
2019-04-29T08:19:47.842Z,29.75
2019-04-29T08:22:18.086Z,26.75
2019-04-29T08:24:45.949Z,27.50
2019-04-29T08:27:12.843Z,24.55
2019-04-29T08:29:39.886Z,20.50
2019-04-29T08:32:06.961Z,19.20
2019-04-29T08:34:33.972Z,18.62
2019-04-29T08:37:01.006Z,16.85
2019-04-29T08:39:29.323Z,18.20
2019-04-29T08:42:02.929Z,20.37
2019-04-29T08:44:35.992Z,23.55
2019-04-29T08:47:22.939Z,23.60
2019-04-29T08:49:51.663Z,25.55
2019-04-29T08:52:18.718Z,28.52
2019-04-29T08:54:45.770Z,26.37
2019-04-29T08:57:12.818Z,24.32
2019-04-29T08:59:39.852Z,26.62
2019-04-29T09:02:10.340Z,24.43
2019-04-29T09:04:35.947Z,23.55
2019-04-29T09:07:12.502Z,23.80
2019-04-29T09:09:31.916Z,25.17
2019-04-29T09:11:58.975Z,27.20
2019-04-29T09:14:26.081Z,26.85
2019-04-29T09:16:53.202Z,23.75
2019-04-29T09:19:20.263Z,23.50
2019-04-29T09:21:50.371Z,20.80
2019-04-29T09:24:17.397Z,22.07
2019-04-29T09:26:49.685Z,18.73
2019-04-29T09:29:36.363Z,20.40
2019-04-29T09:32:04.822Z,21.00
2019-04-29T09:34:31.857Z,20.88
2019-04-29T09:36:58.885Z,21.07
2019-04-29T09:39:25.960Z,20.55
2019-04-29T09:42:14.808Z,19.55
2019-04-29T09:45:19.558Z,19.20
2019-04-29T09:47:45.574Z,19.30
2019-04-29T09:50:12.586Z,21.23
2019-04-29T09:52:39.643Z,22.93
2019-04-29T09:55:06.857Z,19.40
2019-04-29T09:57:33.933Z,23.40
2019-04-29T10:00:07.374Z,20.20
2019-04-29T10:02:43.621Z,20.37
2019-04-29T10:05:30.724Z,19.73
2019-04-29T10:07:57.750Z,20.77
2019-04-29T10:10:24.915Z,17.90
2019-04-29T10:12:53.858Z,21.17
2019-04-29T10:15:27.955Z,19.98
2019-04-29T10:18:00.492Z,19.17
2019-04-29T10:20:50.134Z,17.82
2019-04-29T10:23:17.250Z,16.70
2019-04-29T10:25:44.342Z,17.52
2019-04-29T10:28:11.278Z,18.67
2019-04-29T10:30:38.352Z,18.42
2019-04-29T10:33:05.366Z,15.65
2019-04-29T10:35:32.523Z,15.25
2019-04-29T10:38:11.652Z,16.57
2019-04-29T10:41:00.520Z,18.30
2019-04-29T10:43:44.357Z,17.75
2019-04-29T10:46:29.693Z,17.25
2019-04-29T10:49:03.759Z,18.07
2019-04-29T10:51:30.976Z,18.95
2019-04-29T10:53:58.828Z,16.52
2019-04-29T10:56:25.869Z,14.30
2019-04-29T10:58:53.016Z,13.88
2019-04-29T11:02:19.518Z,14.53
2019-04-29T11:04:48.176Z,16.07
2019-04-29T11:07:31.022Z,15.15
2019-04-29T11:12:28.512Z,14.25
2019-04-29T11:14:55.628Z,14.95
2019-04-29T11:17:24.944Z,14.47
2019-04-29T11:19:51.992Z,14.55
2019-04-29T11:22:21.186Z,15.48
2019-04-29T11:25:01.805Z,13.85
2019-04-29T11:27:34.749Z,13.08
2019-04-29T11:30:02.885Z,14.70
2019-04-29T11:32:37.837Z,15.40
2019-04-29T11:35:15.519Z,11.22
2019-04-29T11:37:42.583Z,10.55
2019-04-29T11:40:09.734Z,10.58
2019-04-29T11:42:41.476Z,11.65
2019-04-29T11:45:08.432Z,13.48
2019-04-29T11:47:35.502Z,14.07
2019-04-29T11:50:26.916Z,13.85
2019-04-29T11:52:55.624Z,12.82
2019-04-29T11:55:22.835Z,12.73
2019-04-29T11:58:04.542Z,12.78
2019-04-29T12:00:56.838Z,11.88
2019-04-29T12:03:27.925Z,12.80
2019-04-29T12:06:02.769Z,13.65
2019-04-29T12:08:29.839Z,12.82
2019-04-29T12:11:06.700Z,11.35
2019-04-29T12:13:33.241Z,11.65
2019-04-29T12:16:08.289Z,11.43
2019-04-29T12:18:39.863Z,12.85
2019-04-29T12:21:28.092Z,13.45
2019-04-29T12:23:57.680Z,12.35
2019-04-29T12:26:24.926Z,12.33
2019-04-29T12:28:51.996Z,11.85
2019-04-29T12:31:37.470Z,11.20
2019-04-29T12:34:18.111Z,11.83
2019-04-29T12:36:55.844Z,10.68
2019-04-29T12:39:51.941Z,10.00
2019-04-29T12:42:55.178Z,11.48
2019-04-29T12:45:36.906Z,11.57
2019-04-29T12:48:06.442Z,10.55
2019-04-29T12:50:33.186Z,10.80
2019-04-29T12:53:00.286Z,12.47
2019-04-29T12:55:44.064Z,11.80
2019-04-29T12:58:04.340Z,12.82
2019-04-29T13:00:46.435Z,11.30
2019-04-29T13:03:16.975Z,10.78
2019-04-29T13:05:59.843Z,11.00
2019-04-29T13:08:37.805Z,10.05
2019-04-29T13:11:05.882Z,11.22
2019-04-29T13:13:32.948Z,11.48
2019-04-29T13:16:20.060Z,10.95
2019-04-29T13:19:11.537Z,12.10
2019-04-29T13:21:30.940Z,12.15
2019-04-29T13:24:12.878Z,10.82
2019-04-29T13:26:28.538Z,11.68
2019-04-29T13:29:01.147Z,9.33
2019-04-29T13:31:37.503Z,8.28
2019-04-29T13:33:55.718Z,8.80
2019-04-29T13:36:26.086Z,8.90
2019-04-29T13:38:51.662Z,7.95
2019-04-29T13:41:24.305Z,8.25
2019-04-29T13:43:48.601Z,10.35
2019-04-29T13:46:25.687Z,6.58
2019-04-29T13:49:13.833Z,6.78
2019-04-29T13:51:41.173Z,7.20
2019-04-29T13:54:08.199Z,7.75
2019-04-29T13:56:54.067Z,6.47
2019-04-29T13:59:10.573Z,6.92
2019-04-29T14:01:59.943Z,6.70
2019-04-29T14:04:26.019Z,7.87
2019-04-29T14:06:57.043Z,8.65
2019-04-29T14:09:22.233Z,8.78
2019-04-29T14:12:01.091Z,8.30
2019-04-29T14:14:22.766Z,7.12
2019-04-29T14:16:48.600Z,8.73
2019-04-29T14:19:20.604Z,6.70
2019-04-29T14:21:44.853Z,7.90
2019-04-29T14:24:11.925Z,8.43
2019-04-29T14:26:41.862Z,6.95
2019-04-29T14:29:07.961Z,6.58
2019-04-29T14:31:35.020Z,10.58
2019-04-29T14:34:24.350Z,7.45
2019-04-29T14:36:51.390Z,6.53
2019-04-29T14:39:35.920Z,7.10
2019-04-29T14:41:55.439Z,7.08
2019-04-29T14:44:41.074Z,6.70
2019-04-29T14:47:33.604Z,6.58
2019-04-29T14:50:10.705Z,7.45
2019-04-29T14:52:36.683Z,6.67
2019-04-29T14:55:04.444Z,6.70
2019-04-29T14:57:31.687Z,7.28
2019-04-29T14:59:59.003Z,5.70
2019-04-29T15:02:26.778Z,6.20
2019-04-29T15:04:53.949Z,5.53
2019-04-29T15:07:21.091Z,5.40
2019-04-29T15:09:55.879Z,5.87
2019-04-29T15:12:28.754Z,5.33
2019-04-29T15:15:03.619Z,5.30
2019-04-29T15:17:40.368Z,7.15
2019-04-29T15:20:25.076Z,5.30
2019-04-29T15:22:50.621Z,5.03
2019-04-29T15:25:20.999Z,4.95
2019-04-29T15:27:46.640Z,5.30
2019-04-29T15:30:16.181Z,4.83
2019-04-29T15:32:43.202Z,4.90
2019-04-29T15:35:10.238Z,5.15
2019-04-29T15:37:37.323Z,5.15
2019-04-29T15:40:05.069Z,5.30
2019-04-29T15:42:32.244Z,5.20
2019-04-29T15:46:21.272Z,5.23
2019-04-29T16:07:51.582Z,6.03
2019-04-29T16:12:29.595Z,5.50
2019-04-29T16:14:35.667Z,5.33
2019-04-29T16:17:20.593Z,6.93
2019-04-29T16:20:07.274Z,6.92
2019-04-29T16:23:45.878Z,7.55
2019-04-29T16:30:51.145Z,5.78
2019-04-29T16:32:57.403Z,7.08
2019-04-29T16:35:50.262Z,5.97
2019-04-29T16:38:17.888Z,5.65
2019-04-29T16:41:32.363Z,6.58
2019-04-29T16:44:04.021Z,8.33
2019-04-29T16:50:14.808Z,8.33
2019-04-29T16:52:45.959Z,7.65
2019-04-29T16:56:00.484Z,8.18
2019-04-29T16:59:09.407Z,6.17
2019-04-29T17:01:36.926Z,6.67
2019-04-29T17:04:05.288Z,7.92
2019-04-29T17:14:13.119Z,7.25
2019-04-29T17:17:29.024Z,9.35
2019-04-29T17:23:28.038Z,6.80
2019-04-29T17:25:55.056Z,7.33
2019-04-29T17:28:31.098Z,7.95
2019-04-29T17:31:12.539Z,8.65
2019-04-29T17:33:51.291Z,8.48
2019-04-29T17:36:23.619Z,11.45
2019-04-29T17:38:47.875Z,10.90
2019-04-29T17:41:14.945Z,10.98
2019-04-29T17:44:07.448Z,11.25
2019-04-29T17:46:54.127Z,10.48
2019-04-29T17:49:37.299Z,10.40
2019-04-29T17:52:09.631Z,12.45
2019-04-29T17:54:39.859Z,11.78
2019-04-29T17:57:31.786Z,10.48
2019-04-29T18:00:27.711Z,11.63
2019-04-29T18:03:12.951Z,13.05
2019-04-29T18:05:54.950Z,15.30
2019-04-29T18:08:40.091Z,12.85
2019-04-29T18:11:08.218Z,15.53
2019-04-29T18:13:35.473Z,12.55
2019-04-29T18:16:04.685Z,12.65
2019-04-29T18:19:01.709Z,14.90
2019-04-29T18:21:47.429Z,16.48
2019-04-29T18:24:46.359Z,16.70
2019-04-29T18:27:15.868Z,18.52
2019-04-29T18:29:43.140Z,15.13
2019-04-29T18:32:10.577Z,18.35
2019-04-29T18:34:37.697Z,16.65
2019-04-29T18:37:06.499Z,18.57
2019-04-29T18:39:33.982Z,21.12
2019-04-29T18:42:03.120Z,16.87
2019-04-29T18:44:30.055Z,18.05
2019-04-29T18:46:57.377Z,18.62
2019-04-29T18:49:25.815Z,18.25
2019-04-29T18:51:52.945Z,21.55
2019-04-29T18:54:20.154Z,19.05
2019-04-29T18:56:47.215Z,19.95
2019-04-29T18:59:15.977Z,20.40
2019-04-29T19:01:45.021Z,20.80
2019-04-29T19:04:22.309Z,21.12
2019-04-29T19:06:51.315Z,24.75
2019-04-29T19:09:20.944Z,24.82
2019-04-29T19:11:48.083Z,23.42
2019-04-29T19:14:15.218Z,23.18
2019-04-29T19:16:42.343Z,22.37
2019-04-29T19:19:09.340Z,23.47
2019-04-29T19:21:36.412Z,25.23
2019-04-29T19:24:04.849Z,22.10
2019-04-29T19:26:32.031Z,23.65
2019-04-29T19:29:01.302Z,23.75
2019-04-29T19:31:28.098Z,24.30
2019-04-29T19:33:57.230Z,25.17
2019-04-29T19:36:24.254Z,23.90
2019-04-29T19:38:51.399Z,25.37
2019-04-29T19:41:18.576Z,28.42
2019-04-29T19:43:48.268Z,24.10
2019-04-29T19:46:22.580Z,25.72
2019-04-29T19:48:45.113Z,24.15
2019-04-29T19:51:16.112Z,23.00
2019-04-29T19:53:43.473Z,23.85
2019-04-29T19:56:12.712Z,23.42
2019-04-29T19:58:40.031Z,23.40
2019-04-29T20:01:13.981Z,21.40
2019-04-29T20:03:50.134Z,23.95
2019-04-29T20:06:24.904Z,21.77
2019-04-29T20:08:53.813Z,18.12
2019-04-29T20:11:17.601Z,17.40
2019-04-29T20:13:58.437Z,17.62
2019-04-29T20:16:40.366Z,17.98
2019-04-29T20:19:16.459Z,17.12
2019-04-29T20:21:41.011Z,17.00
2019-04-29T20:24:09.806Z,16.70
2019-04-29T20:26:37.257Z,16.95
2019-04-29T20:29:07.114Z,17.40
2019-04-29T20:31:35.627Z,19.12
2019-04-29T20:34:02.656Z,18.65
2019-04-29T20:36:40.838Z,19.15
2019-04-29T20:38:58.930Z,17.48
2019-04-29T20:41:40.094Z,15.63
2019-04-29T20:43:56.265Z,17.67
2019-04-29T20:46:23.507Z,17.85
2019-04-29T20:48:57.464Z,17.75
2019-04-29T20:51:23.302Z,16.40
2019-04-29T20:53:58.150Z,17.37
2019-04-29T20:56:28.999Z,17.87
2019-04-29T20:58:55.160Z,17.45
2019-04-29T21:01:30.800Z,17.55
2019-04-29T21:03:58.084Z,16.87
2019-04-29T21:06:25.158Z,20.52
2019-04-29T21:08:52.322Z,17.40
2019-04-29T21:11:32.060Z,19.12
2019-04-29T21:14:21.602Z,20.35
2019-04-29T21:16:49.411Z,19.73
2019-04-29T21:19:16.548Z,20.72
2019-04-29T21:21:45.596Z,20.10
2019-04-29T21:24:18.289Z,20.60
2019-04-29T21:26:44.419Z,19.48
2019-04-29T21:29:15.147Z,20.37
2019-04-29T21:31:39.747Z,21.35
2019-04-29T21:34:06.797Z,19.50
2019-04-29T21:37:08.573Z,21.42
2019-04-29T21:39:55.061Z,20.65
2019-04-29T21:42:55.405Z,25.43
2019-04-29T21:45:22.698Z,19.10
2019-04-29T21:47:54.337Z,22.70
2019-04-29T21:50:21.678Z,23.42
2019-04-29T21:52:48.736Z,21.27
2019-04-29T21:55:16.320Z,21.05
2019-04-29T21:57:45.087Z,24.45
2019-04-29T22:00:12.955Z,24.98
2019-04-29T22:02:41.608Z,24.25
2019-04-29T22:05:09.541Z,23.98
2019-04-29T22:07:39.781Z,24.00
2019-04-29T22:10:20.053Z,23.95
2019-04-29T22:12:45.016Z,26.80
2019-04-29T22:15:15.823Z,27.02
2019-04-29T22:17:54.388Z,25.02
2019-04-29T22:20:12.923Z,27.20
2019-04-29T22:22:40.294Z,25.37
2019-04-29T22:25:10.003Z,25.90
2019-04-29T22:27:39.327Z,27.80
2019-04-29T22:30:10.226Z,24.92
2019-04-29T22:32:39.152Z,26.45
2019-04-29T22:35:06.689Z,26.45
2019-04-29T22:37:37.157Z,29.15
2019-04-29T22:40:09.071Z,27.58
2019-04-29T22:42:45.763Z,29.00
2019-04-29T22:45:13.527Z,27.93
2019-04-29T22:47:40.593Z,28.25
2019-04-29T22:50:07.620Z,30.30
2019-04-29T22:52:34.882Z,30.17
2019-04-29T22:55:05.533Z,31.02
2019-04-29T22:57:32.764Z,31.45
2019-04-29T22:59:59.814Z,31.77
2019-04-29T23:02:28.445Z,37.53
2019-04-29T23:04:55.836Z,34.98
2019-04-29T23:07:23.464Z,35.48
2019-04-29T23:09:50.601Z,35.28
2019-04-29T23:12:18.641Z,33.75
2019-04-29T23:14:45.962Z,34.67
2019-04-29T23:17:13.423Z,33.67
2019-04-29T23:19:41.548Z,33.15
2019-04-29T23:22:34.033Z,34.33
2019-04-29T23:25:08.500Z,31.97
2019-04-29T23:27:36.028Z,32.28
2019-04-29T23:30:04.513Z,32.45
2019-04-29T23:32:31.577Z,33.28
2019-04-29T23:35:01.661Z,32.40
2019-04-29T23:37:29.476Z,34.58
2019-04-29T23:39:56.701Z,36.08
2019-04-29T23:42:23.729Z,33.05
2019-04-29T23:44:50.788Z,32.67
2019-04-29T23:47:17.896Z,36.63
2019-04-29T23:49:46.746Z,35.33
2019-04-29T23:52:17.641Z,37.78
2019-04-29T23:54:46.935Z,35.30
2019-04-29T23:57:29.994Z,38.23
